createdAt,value
2023-03-29T00:02:09.439Z,1.00
2023-03-29T00:06:02.509Z,1.00
2023-03-29T00:09:34.515Z,1.00
2023-03-29T00:12:57.394Z,1.00
2023-03-29T00:16:27.917Z,1.00
2023-03-29T00:20:35.246Z,1.00
2023-03-29T00:24:13.982Z,1.00
2023-03-29T00:27:40.013Z,1.00
2023-03-29T00:31:23.286Z,1.00
2023-03-29T00:34:52.772Z,1.00
2023-03-29T00:38:18.559Z,1.00
2023-03-29T00:41:40.693Z,1.00
2023-03-29T00:45:18.969Z,1.00
2023-03-29T00:48:41.974Z,1.00
2023-03-29T00:52:08.120Z,1.00
2023-03-29T00:55:35.536Z,1.00
2023-03-29T00:59:13.738Z,1.00
2023-03-29T01:02:39.913Z,1.00
2023-03-29T01:06:07.691Z,1.00
2023-03-29T01:09:33.474Z,1.00
2023-03-29T01:13:03.803Z,1.00
2023-03-29T01:16:28.657Z,1.00
2023-03-29T01:20:08.232Z,1.00
2023-03-29T01:23:51.198Z,1.00
2023-03-29T01:27:48.032Z,1.00
2023-03-29T01:31:57.195Z,1.00
2023-03-29T01:35:55.275Z,1.00
2023-03-29T01:39:22.215Z,1.00
2023-03-29T01:42:54.349Z,1.00
2023-03-29T01:46:39.943Z,1.00
2023-03-29T01:50:15.614Z,1.00
2023-03-29T01:54:15.975Z,4.10
2023-03-29T01:57:44.105Z,1.00
2023-03-29T02:01:19.672Z,33.50
2023-03-29T02:04:49.037Z,50.50
2023-03-29T02:08:13.465Z,38.50
2023-03-29T02:11:36.940Z,30.10
2023-03-29T02:15:00.929Z,48.70
2023-03-29T02:18:24.783Z,1.00
2023-03-29T02:22:13.001Z,1.00
2023-03-29T02:25:47.419Z,1.00
2023-03-29T02:33:46.589Z,1.00
2023-03-29T02:37:22.658Z,1.00
2023-03-29T02:41:10.784Z,1.00
2023-03-29T02:44:41.467Z,1.00
2023-03-29T02:48:09.245Z,1.00
2023-03-29T02:51:34.118Z,1.00
2023-03-29T02:54:57.116Z,1.00
2023-03-29T02:58:19.209Z,1.00
2023-03-29T03:01:45.112Z,1.00
2023-03-29T03:05:09.301Z,1.00
2023-03-29T03:08:32.252Z,1.00
2023-03-29T03:11:54.435Z,1.00
2023-03-29T03:15:16.894Z,1.00
2023-03-29T03:18:39.795Z,1.00
2023-03-29T03:22:02.110Z,1.00
2023-03-29T03:25:24.617Z,1.00
2023-03-29T03:28:46.781Z,1.00
2023-03-29T03:32:29.823Z,1.00
2023-03-29T03:36:15.489Z,10.90
2023-03-29T03:40:05.921Z,41.90
2023-03-29T03:43:30.189Z,96.60
2023-03-29T03:46:57.106Z,99.90
2023-03-29T03:50:20.234Z,91.30
2023-03-29T03:54:04.621Z,58.00
2023-03-29T03:57:36.334Z,44.30
2023-03-29T04:01:12.338Z,48.20
2023-03-29T04:04:54.069Z,93.40
2023-03-29T04:08:21.572Z,54.20
2023-03-29T04:12:09.869Z,54.80
2023-03-29T04:42:24.837Z,8.90
2023-03-29T04:45:59.952Z,3.40
2023-03-29T04:50:40.544Z,1.00
2023-03-29T08:52:35.240Z,99.90
2023-03-29T09:16:19.041Z,99.90
2023-03-29T09:20:34.989Z,99.90
2023-03-29T09:25:06.269Z,99.90
2023-03-29T09:34:16.122Z,99.90
2023-03-29T09:47:03.101Z,99.90
2023-03-29T09:52:10.761Z,99.90
2023-03-29T10:19:19.180Z,99.90
2023-03-29T11:43:42.562Z,99.90
2023-03-29T11:47:46.937Z,99.90
2023-03-29T11:51:28.190Z,99.90
2023-03-29T11:54:55.259Z,99.90
2023-03-29T11:58:29.417Z,99.90
2023-03-29T12:02:37.117Z,99.90
2023-03-29T12:06:34.139Z,99.90
2023-03-29T12:10:15.025Z,99.90
2023-03-29T12:13:50.821Z,99.90
2023-03-29T12:17:19.703Z,99.90
2023-03-29T12:20:42.780Z,99.90
2023-03-29T12:24:15.660Z,99.90
2023-03-29T12:28:07.995Z,99.90
2023-03-29T12:32:01.808Z,99.90
2023-03-29T12:36:06.476Z,99.90
2023-03-29T12:39:50.650Z,99.90
2023-03-29T12:43:34.758Z,99.90
2023-03-29T12:47:31.571Z,99.90
2023-03-29T12:51:01.189Z,99.90
2023-03-29T12:54:28.652Z,99.90
2023-03-29T12:58:27.826Z,99.90
2023-03-29T13:02:14.209Z,99.90
2023-03-29T13:05:37.083Z,99.90
2023-03-29T13:09:23.215Z,99.90
2023-03-29T13:12:47.790Z,99.90
2023-03-29T13:16:22.752Z,99.90
2023-03-29T13:19:49.326Z,99.90
2023-03-29T13:23:22.249Z,99.90
2023-03-29T13:27:37.625Z,99.90
2023-03-29T13:31:27.102Z,99.90
2023-03-29T13:35:24.861Z,99.90
2023-03-29T13:38:53.527Z,99.90
2023-03-29T13:42:24.502Z,99.90
2023-03-29T13:45:58.125Z,99.90
2023-03-29T13:49:25.573Z,99.90
2023-03-29T13:53:10.417Z,99.90
2023-03-29T13:56:51.509Z,99.90
2023-03-29T14:00:22.471Z,99.90
2023-03-29T14:03:48.950Z,99.90
2023-03-29T14:07:14.778Z,99.90
2023-03-29T14:10:41.429Z,99.90
2023-03-29T14:14:10.998Z,99.90
2023-03-29T14:17:35.684Z,99.90
2023-03-29T14:21:01.881Z,99.90
2023-03-29T14:24:28.236Z,99.90
2023-03-29T14:27:50.270Z,99.90
2023-03-29T14:31:24.935Z,99.90
2023-03-29T14:34:51.119Z,99.90
2023-03-29T14:38:18.336Z,99.90
2023-03-29T14:41:44.172Z,99.90
2023-03-29T14:45:07.261Z,99.90
2023-03-29T14:48:30.810Z,99.90
2023-03-29T14:51:54.850Z,99.90
2023-03-29T14:55:19.295Z,99.90
2023-03-29T14:58:49.349Z,99.90
2023-03-29T15:02:38.076Z,99.90
2023-03-29T15:06:14.571Z,99.90
2023-03-29T15:09:42.616Z,99.90
2023-03-29T15:13:06.758Z,99.90
2023-03-29T15:16:30.606Z,99.90
2023-03-29T15:20:00.903Z,99.90
2023-03-29T15:23:29.232Z,99.90
2023-03-29T15:27:23.592Z,99.90
2023-03-29T15:30:54.235Z,99.90
2023-03-29T15:34:31.208Z,99.90
2023-03-29T15:37:53.436Z,99.90
2023-03-29T15:41:16.151Z,99.90
2023-03-29T15:44:39.256Z,99.90
2023-03-29T15:48:04.844Z,99.90
2023-03-29T15:51:26.898Z,99.90
2023-03-29T15:54:49.073Z,99.90
2023-03-29T15:58:19.470Z,99.90
2023-03-29T16:01:41.907Z,99.90
2023-03-29T16:05:04.131Z,99.90
2023-03-29T16:08:26.200Z,99.90
2023-03-29T16:11:50.056Z,99.90
2023-03-29T16:15:20.474Z,99.90
2023-03-29T16:18:44.964Z,1.00
2023-03-29T16:22:07.620Z,1.00
2023-03-29T16:25:29.867Z,1.00
2023-03-29T16:28:51.983Z,1.00
2023-03-29T16:32:13.923Z,1.00
2023-03-29T16:35:38.790Z,1.00
2023-03-29T16:39:01.680Z,1.00
2023-03-29T16:42:24.282Z,1.00
2023-03-29T16:45:47.389Z,1.00
2023-03-29T16:49:14.052Z,1.00
2023-03-29T16:52:37.896Z,1.00
2023-03-29T16:56:00.882Z,1.00
2023-03-29T16:59:27.274Z,1.00
2023-03-29T17:02:50.167Z,1.00
2023-03-29T17:06:12.511Z,1.00
2023-03-29T17:09:34.855Z,1.00
2023-03-29T17:12:58.124Z,1.00
2023-03-29T17:16:20.672Z,1.00
2023-03-29T17:19:42.844Z,1.00
2023-03-29T17:23:07.158Z,1.00
2023-03-29T17:26:29.201Z,1.00
2023-03-29T17:29:51.246Z,1.00
2023-03-29T17:33:13.616Z,1.00
2023-03-29T17:36:37.446Z,1.00
2023-03-29T17:39:59.396Z,1.00
2023-03-29T17:43:21.601Z,1.00
2023-03-29T17:46:43.566Z,1.00
2023-03-29T17:50:07.026Z,1.00
2023-03-29T17:53:29.076Z,1.00
2023-03-29T17:56:51.245Z,1.00
2023-03-29T18:00:14.737Z,1.00
2023-03-29T18:03:37.464Z,1.00
2023-03-29T18:06:59.598Z,1.00
2023-03-29T18:10:21.733Z,1.00
2023-03-29T18:13:44.931Z,1.00
2023-03-29T18:17:06.995Z,2.60
2023-03-29T18:20:29.103Z,18.10
2023-03-29T18:23:52.954Z,24.70
2023-03-29T18:27:16.751Z,70.10
2023-03-29T18:30:38.753Z,96.80
2023-03-29T18:34:00.981Z,99.90
2023-03-29T18:37:23.049Z,99.90
2023-03-29T18:40:47.785Z,99.90
2023-03-29T18:44:10.674Z,99.90
2023-03-29T18:47:33.205Z,99.90
2023-03-29T18:50:58.443Z,99.90
2023-03-29T18:54:20.855Z,99.90
2023-03-29T18:57:42.874Z,99.90
2023-03-29T19:01:06.499Z,99.90
2023-03-29T19:04:28.935Z,99.90
2023-03-29T19:07:51.801Z,99.90
2023-03-29T19:11:15.125Z,99.90
2023-03-29T19:14:37.141Z,99.90
2023-03-29T19:17:59.136Z,99.90
2023-03-29T19:21:21.444Z,99.90
2023-03-29T19:24:43.531Z,99.90
2023-03-29T19:28:05.608Z,99.90
2023-03-29T19:31:27.961Z,99.90
2023-03-29T19:34:50.424Z,99.90
2023-03-29T19:38:12.876Z,1.00
2023-03-29T19:41:34.967Z,1.00
2023-03-29T19:44:56.922Z,1.00
2023-03-29T19:48:23.863Z,1.00
2023-03-29T19:51:47.952Z,26.10
2023-03-29T19:55:10.627Z,99.90
2023-03-29T19:58:32.604Z,99.90
2023-03-29T20:01:56.895Z,99.90
2023-03-29T20:05:19.100Z,99.90
2023-03-29T20:08:41.336Z,99.90
2023-03-29T20:12:03.950Z,99.90
2023-03-29T20:15:26.132Z,99.90
2023-03-29T20:18:48.062Z,99.90
2023-03-29T20:22:11.362Z,99.90
2023-03-29T20:25:36.232Z,99.90
2023-03-29T20:28:58.267Z,99.90
2023-03-29T20:32:20.686Z,99.90
2023-03-29T20:35:48.744Z,99.90
2023-03-29T20:39:12.195Z,99.90
2023-03-29T20:42:38.756Z,99.90
2023-03-29T20:46:00.757Z,99.90
2023-03-29T20:49:26.546Z,99.90
2023-03-29T20:52:48.735Z,99.90
2023-03-29T20:56:10.855Z,99.90
2023-03-29T20:59:34.382Z,99.90
2023-03-29T21:03:00.298Z,99.90
2023-03-29T21:06:26.125Z,96.70
2023-03-29T21:09:51.404Z,78.10
2023-03-29T21:13:13.504Z,41.90
2023-03-29T21:16:45.328Z,38.00
2023-03-29T21:20:11.323Z,1.00
2023-03-29T21:23:33.788Z,1.00
2023-03-29T21:26:56.276Z,20.50
2023-03-29T21:30:19.533Z,46.50
2023-03-29T21:33:54.618Z,1.00
2023-03-29T21:37:17.086Z,1.00
2023-03-29T21:40:41.005Z,1.00
2023-03-29T21:44:04.288Z,1.00
2023-03-29T21:47:26.507Z,1.00
2023-03-29T21:50:50.532Z,1.00
2023-03-29T21:54:12.821Z,1.00
2023-03-29T21:57:34.902Z,1.00
2023-03-29T22:00:57.233Z,1.00
2023-03-29T22:04:29.588Z,1.00
2023-03-29T22:07:58.805Z,1.00
2023-03-29T22:11:21.007Z,1.00
2023-03-29T22:14:42.977Z,1.00
2023-03-29T22:18:05.316Z,1.00
2023-03-29T22:21:31.303Z,1.00
2023-03-29T22:24:59.574Z,1.00
2023-03-29T22:28:22.351Z,1.00
2023-03-29T22:31:44.563Z,1.00
2023-03-29T22:35:07.518Z,1.00
2023-03-29T22:38:29.687Z,1.00
2023-03-29T22:41:51.630Z,99.90
2023-03-29T22:45:14.291Z,99.90
2023-03-29T22:48:40.446Z,99.90
2023-03-29T22:52:02.612Z,99.90
2023-03-29T22:55:24.778Z,99.90
2023-03-29T22:58:47.127Z,99.90
2023-03-29T23:02:12.284Z,99.90
2023-03-29T23:05:34.768Z,99.90
2023-03-29T23:08:56.904Z,99.90
2023-03-29T23:12:18.858Z,99.90
2023-03-29T23:15:47.422Z,1.00
2023-03-29T23:19:09.748Z,1.00
2023-03-29T23:22:33.140Z,1.00
2023-03-29T23:25:56.048Z,1.00
2023-03-29T23:29:18.355Z,1.00
2023-03-29T23:32:40.470Z,1.00
2023-03-29T23:36:04.763Z,1.00
2023-03-29T23:39:26.934Z,1.00
2023-03-29T23:42:48.990Z,1.00
2023-03-29T23:46:16.545Z,1.00
2023-03-29T23:49:38.783Z,99.90
2023-03-29T23:53:00.733Z,99.90
2023-03-29T23:56:23.065Z,99.90
2023-03-29T23:59:45.006Z,99.90
